NCAR-RAP Real-Time Weather Data

Output produced by METARs form (21 May 2019  11:02 UTC)
found at http://weather.rap.ucar.edu/surface/
 
RJNK 211000Z 19005KT 170V230 9999 FEW040 BKN230 18/10 Q1006
RJNK 210900Z 28009KT 9999 FEW180 BKN230 19/10 Q1005
RJNK 210800Z 29010KT 9999 FEW180 BKN230 19/10 Q1005
RJNK 210700Z 29009KT 9999 FEW180 BKN230 20/09 Q1004
RJNK 210600Z 28006KT 250V310 9999 FEW060 BKN230 21/05 Q1005
RJNK 210500Z 29007KT 260V320 9999 FEW060 BKN230 21/10 Q1005
RJNK 210400Z 28006KT 250V310 9999 FEW060 SCT230 21/12 Q1005
RJNK 210300Z 29006KT 250V330 9999 FEW060 SCT230 19/10 Q1005
RJNK 210200Z 30006KT 260V350 9999 FEW060 BKN180 19/11 Q1005
RJNK 210100Z VRB02KT 9999 FEW020 SCT060 BKN180 19/11 Q1005
RJNK 210000Z 13003KT 9999 FEW020 BKN060 18/14 Q1005
RJNK 202300Z 16003KT 9999 FEW020 SCT040 BKN060 16/14 Q1005
RJNK 202200Z 17006KT 9999 -SHRA FEW010 SCT020 BKN040 15/14 Q1005
RJNK 202100Z 22004KT 6000 -SHRA FEW005 SCT008 BKN010 15/14 Q1005
RJNK 202000Z 31008KT 3000 SHRA FEW003 BKN005 BKN008 15/14 Q1004
RJNK 201900Z 30016KT 2500 +SHRA FEW003 BKN005 OVC008 15/14 Q1003
RJNK 201800Z VRB02KT 2500 +SHRA FEW003 BKN005 BKN008 17/16 Q1002
RJNK 201700Z 34009KT 4000 -SHRA FEW005 BKN010 BKN050 17/16 Q1001
RJNK 201600Z 36009KT 8000 -SHRA FEW005 SCT030 BKN050 18/17 Q1002
RJNK 201500Z 34012KT 9999 -SHRA FEW030 BKN050 BKN100 18/16 Q1001
RJNK 201400Z 03006KT 360V060 8000 -SHRA FEW030 BKN050 BKN100 18/16 Q1003
RJNK 201300Z 09008KT 8000 -SHRA FEW030 BKN050 BKN100 19/15 Q1003
RJNK 201200Z 11005KT 080V150 9999 -SHRA FEW030 BKN050 BKN100 20/14 Q1003
RJNK 201100Z 16015G28KT 120V190 9999 -SHRA FEW030 BKN050 BKN100 23/12 Q1003
RJNK 201000Z 15008KT 130V190 9999 -SHRA FEW030 SCT050 BKN100 24/10 Q1003
RJNK 200900Z 17012KT 9999 FEW030 SCT100 BKN120 24/11 Q1003
RJNK 200800Z 16013KT 9999 FEW050 SCT100 BKN120 25/11 Q1004
RJNK 200700Z 17016G26KT 9999 FEW030 SCT080 BKN120 25/11 Q1004
RJNK 200600Z 18014KT 9999 -SHRA FEW030 SCT080 BKN120 26/11 Q1005
RJNK 200500Z 16016G26KT 130V200 9999 FEW050 SCT080 BKN120 27/11 Q1004
RJNK 200400Z 16014KT 120V180 9999 FEW050 SCT120 BKN150 28/11 Q1005
RJNK 200300Z 16015KT 9999 FEW050 SCT150 28/11 Q1006
RJNK 200200Z 16014KT 9999 FEW050 SCT120 BKN150 26/10 Q1007
RJNK 200100Z 17014KT 120V190 9999 FEW050 SCT120 BKN150 25/09 Q1008
RJNK 200000Z 16011KT 9999 FEW050 SCT150 BKN180 25/09 Q1008
RJNK 192300Z 18008KT 9999 FEW050 BKN180 24/10 Q1009
RJNK 192200Z 16008KT 9999 FEW050 BKN180 24/10 Q1009
RJNK 192100Z 13005KT 9999 FEW050 SCT230 21/09 Q1010
RJNK 192000Z 28002KT 9999 FEW030 SCT180 19/08 Q1011
RJNK 191900Z 08004KT 060V130 9999 FEW030 BKN180 BKN/// 18/09 Q1011
RJNK 191800Z 20005KT 9999 FEW030 SCT/// 17/12 Q1012
RJNK 191700Z VRB02KT 9999 FEW030 BKN/// 19/11 Q1013
RJNK 191600Z VRB02KT 9999 FEW030 BKN/// 19/11 Q1013
RJNK 191500Z 02005KT 350V060 9999 FEW030 BKN/// 19/12 Q1014
RJNK 191400Z 02003KT 350V050 9999 FEW030 BKN/// 19/12 Q1014
RJNK 191300Z 03002KT 9999 FEW030 SCT080 BKN/// 20/13 Q1015
RJNK 191200Z VRB01KT 9999 FEW030 BKN/// 20/13 Q1015
RJNK 191100Z VRB01KT 9999 FEW030 BKN/// 21/11 Q1015
RJNK 191000Z 36006KT 320V020 9999 FEW080 BKN230 21/11 Q1015
RJNK 190900Z 02006KT 9999 FEW030 BKN230 23/11 Q1015
RJNK 190800Z 03007KT 350V060 9999 FEW030 BKN230 24/11 Q1015
RJNK 190700Z 02011KT 9999 FEW030 BKN230 24/11 Q1015
RJNK 190600Z 35012KT 9999 FEW030 BKN230 25/12 Q1015
RJNK 190500Z 34010KT 300V010 9999 FEW030 BKN230 25/13 Q1015
RJNK 190400Z 36010KT 9999 FEW030 SCT230 24/12 Q1015
RJNK 190300Z 36011KT 9999 FEW030 SCT230 25/13 Q1016
RJNK 190200Z 36010KT 9999 FEW030 24/10 Q1017
RJNK 190100Z 35010KT 9999 FEW030 23/09 Q1017
RJNK 190000Z 35007KT 9999 FEW030 22/11 Q1018